Time;durP1;ratioP1;P1;durP2;ratioP2;P2;SDS_P1;SDS_P2;PMS_P1;PMS_P2;Temp;Humidity;BMP_temperature;BMP_pressure;BME280_temperature;BME280_humidity;BME280_pressure;Samples;Min_cycle;Max_cycle;Signal;HPM_P1;HPM_P2
2022/11/20 00:00:11;;;;;;;17.50;9.67;;;6.60;99.90;;;;;;5013530;28;20949;-58
2022/11/20 00:02:39;;;;;;;11.97;9.87;;;6.60;99.90;;;;;;5013389;28;20541;-58
2022/11/20 00:05:08;;;;;;;12.27;10.60;;;6.60;99.90;;;;;;5013366;28;20510;-58
2022/11/20 00:07:35;;;;;;;11.37;10.17;;;6.60;99.90;;;;;;5014250;28;20486;-57
2022/11/20 00:10:03;;;;;;;10.60;9.50;;;6.60;99.90;;;;;;5012234;28;20641;-58
2022/11/20 00:12:30;;;;;;;11.07;9.17;;;6.60;99.90;;;;;;5013487;28;20483;-57
2022/11/20 00:14:57;;;;;;;12.93;9.87;;;6.60;99.90;;;;;;5013611;28;20541;-57
2022/11/20 00:17:24;;;;;;;15.17;9.70;;;6.70;99.90;;;;;;5013652;28;20451;-57
2022/11/20 00:19:53;;;;;;;10.23;7.63;;;6.80;99.90;;;;;;5013403;28;20534;-57
2022/11/20 00:22:20;;;;;;;7.87;7.17;;;6.90;99.90;;;;;;5013634;28;20454;-57
2022/11/20 00:24:47;;;;;;;10.57;7.50;;;6.90;99.90;;;;;;5013492;28;20836;-58
2022/11/20 00:27:15;;;;;;;9.33;6.97;;;7.00;99.90;;;;;;5015455;28;21004;-57
2022/11/20 00:29:42;;;;;;;7.17;5.67;;;7.00;99.90;;;;;;5016855;28;20479;-58
2022/11/20 00:32:09;;;;;;;7.47;6.17;;;7.00;99.90;;;;;;5017005;28;20506;-57
2022/11/20 00:34:37;;;;;;;5.50;5.10;;;7.00;99.90;;;;;;5017140;28;20874;-57
2022/11/20 00:37:05;;;;;;;5.87;4.57;;;6.90;99.90;;;;;;5017044;28;20454;-57
2022/11/20 00:39:33;;;;;;;5.87;5.33;;;6.90;99.90;;;;;;5016711;28;20965;-57
2022/11/20 00:42:00;;;;;;;6.23;5.10;;;6.90;99.90;;;;;;5017108;28;20451;-57
2022/11/20 00:44:27;;;;;;;5.00;4.50;;;6.90;99.90;;;;;;5016555;28;20535;-57
2022/11/20 00:46:54;;;;;;;5.30;4.80;;;6.90;99.90;;;;;;5016641;28;20487;-58
2022/11/20 00:49:22;;;;;;;5.97;5.30;;;6.90;99.90;;;;;;5016503;28;20517;-58
2022/11/20 00:51:49;;;;;;;4.97;4.57;;;6.90;99.90;;;;;;5016472;28;20483;-57
2022/11/20 00:54:17;;;;;;;5.00;4.60;;;7.00;99.90;;;;;;5016415;28;20541;-58
2022/11/20 00:56:45;;;;;;;5.80;4.13;;;6.90;99.90;;;;;;5016345;28;21048;-58
2022/11/20 00:59:12;;;;;;;6.00;4.23;;;6.90;99.90;;;;;;5016665;28;20501;-58
2022/11/20 01:01:40;;;;;;;5.73;4.10;;;6.90;99.90;;;;;;5016658;28;20485;-57
2022/11/20 01:04:07;;;;;;;6.03;4.73;;;6.90;99.90;;;;;;5016608;28;20530;-58
2022/11/20 01:06:36;;;;;;;7.23;4.73;;;7.00;99.90;;;;;;5016221;28;20498;-58
2022/11/20 01:09:07;;;;;;;4.87;4.13;;;7.00;99.90;;;;;;5015915;28;21032;-58
2022/11/20 01:11:37;;;;;;;5.33;4.10;;;7.00;99.90;;;;;;5016092;28;20435;-57
2022/11/20 01:14:06;;;;;;;5.20;4.17;;;7.00;99.90;;;;;;5016660;28;20450;-58
2022/11/20 01:16:35;;;;;;;6.27;4.30;;;7.10;99.90;;;;;;5016305;28;20499;-58
2022/11/20 01:19:05;;;;;;;4.83;4.43;;;7.10;99.90;;;;;;5016032;28;20457;-58
2022/11/20 01:21:35;;;;;;;5.50;4.57;;;7.20;99.90;;;;;;5016378;28;20451;-58
2022/11/20 01:24:03;;;;;;;4.80;4.10;;;7.20;99.90;;;;;;5016278;28;20850;-58
2022/11/20 01:26:33;;;;;;;6.50;4.27;;;7.20;99.90;;;;;;5015807;28;20506;-57
2022/11/20 01:29:03;;;;;;;4.90;4.33;;;7.00;99.90;;;;;;5016079;28;20572;-57
2022/11/20 01:31:32;;;;;;;5.83;4.57;;;7.10;99.90;;;;;;5016057;28;20501;-57
2022/11/20 01:34:01;;;;;;;4.93;4.23;;;7.10;99.90;;;;;;5015866;28;20447;-57
2022/11/20 01:36:30;;;;;;;4.37;3.93;;;7.00;99.90;;;;;;5015873;28;20517;-57
2022/11/20 01:39:00;;;;;;;5.83;5.00;;;7.00;99.90;;;;;;5014852;28;20965;-58
2022/11/20 01:44:17;;;;;;;4.90;3.93;;;7.00;99.90;;;;;;5015921;28;20410;-58
2022/11/20 01:46:55;;;;;;;4.13;3.80;;;7.00;99.90;;;;;;5015750;28;20876;-57
2022/11/20 01:49:27;;;;;;;4.00;3.67;;;6.90;99.90;;;;;;5015384;28;20557;-57
2022/11/20 01:51:59;;;;;;;7.00;4.10;;;6.80;99.90;;;;;;5015365;28;20467;-58
2022/11/20 01:54:31;;;;;;;4.50;3.53;;;6.80;99.90;;;;;;5015596;28;20482;-58
2022/11/20 01:57:01;;;;;;;4.73;3.67;;;6.70;99.90;;;;;;5015823;28;20431;-58
2022/11/20 01:59:31;;;;;;;3.30;3.00;;;6.70;99.90;;;;;;5015296;28;20431;-58
2022/11/20 02:01:59;;;;;;;3.63;3.33;;;6.60;99.90;;;;;;5015159;28;20542;-58
2022/11/20 02:04:27;;;;;;;4.00;3.70;;;6.60;99.90;;;;;;5015532;28;20459;-57
2022/11/20 02:07:01;;;;;;;5.00;4.00;;;6.60;99.90;;;;;;5015130;28;20921;-57
2022/11/20 02:09:29;;;;;;;3.50;3.20;;;6.50;99.90;;;;;;5014832;28;20536;-58
2022/11/20 02:11:57;;;;;;;4.50;4.10;;;6.50;99.90;;;;;;5015025;28;20875;-58
2022/11/20 02:14:24;;;;;;;5.93;3.67;;;6.50;99.90;;;;;;5015132;28;20447;-58
2022/11/20 02:16:53;;;;;;;3.90;3.60;;;6.60;99.90;;;;;;5015199;28;20488;-58
2022/11/20 02:19:25;;;;;;;4.30;3.97;;;6.60;99.90;;;;;;5015202;28;20443;-57
2022/11/20 02:22:01;;;;;;;4.43;3.47;;;6.70;99.90;;;;;;5014898;28;20965;-58
2022/11/20 02:24:30;;;;;;;4.73;4.20;;;6.70;99.90;;;;;;5015016;28;20446;-57
2022/11/20 02:27:00;;;;;;;5.13;3.80;;;6.70;99.90;;;;;;5014729;28;20451;-57
2022/11/20 02:29:37;;;;;;;4.93;4.37;;;6.60;99.90;;;;;;5014678;28;20463;-57
2022/11/20 02:32:05;;;;;;;4.53;3.33;;;6.60;99.90;;;;;;5014996;28;20514;-58
2022/11/20 02:34:32;;;;;;;4.07;3.70;;;6.50;99.90;;;;;;5014753;28;20862;-58
2022/11/20 02:37:00;;;;;;;3.70;3.40;;;6.50;99.90;;;;;;5014552;28;20455;-57
2022/11/20 02:39:30;;;;;;;3.30;3.10;;;6.60;99.90;;;;;;5014505;28;20977;-57
2022/11/20 02:41:57;;;;;;;3.60;3.30;;;6.50;99.90;;;;;;5014480;28;20482;-57
2022/11/20 02:44:25;;;;;;;4.70;4.30;;;6.40;99.90;;;;;;5014459;28;20443;-58
2022/11/20 02:46:52;;;;;;;3.20;2.90;;;6.50;99.90;;;;;;5014748;28;20455;-57
2022/11/20 02:49:19;;;;;;;4.53;3.30;;;6.50;99.90;;;;;;5014353;28;20556;-57
2022/11/20 02:51:46;;;;;;;5.30;4.30;;;6.60;99.90;;;;;;5014653;28;20875;-57
2022/11/20 02:54:14;;;;;;;3.90;3.60;;;6.70;99.90;;;;;;5014561;28;20852;-58
2022/11/20 02:56:43;;;;;;;4.63;3.67;;;6.60;99.90;;;;;;5014501;28;20467;-57
2022/11/20 02:59:10;;;;;;;3.30;3.10;;;6.70;99.90;;;;;;5014155;28;20451;-57
2022/11/20 03:01:38;;;;;;;4.10;3.53;;;6.70;99.90;;;;;;5014378;28;20884;-58
2022/11/20 03:04:06;;;;;;;3.80;3.50;;;6.70;99.90;;;;;;5014341;28;20871;-58
2022/11/20 03:06:33;;;;;;;3.87;3.57;;;6.70;99.90;;;;;;5014057;28;20559;-57
2022/11/20 03:09:00;;;;;;;3.47;3.17;;;6.70;99.90;;;;;;5013796;28;20522;-58
2022/11/20 03:11:28;;;;;;;3.40;3.10;;;6.70;99.90;;;;;;5014068;28;20447;-58
2022/11/20 03:13:56;;;;;;;3.67;3.37;;;6.80;99.90;;;;;;5014303;28;20458;-58
2022/11/20 03:16:24;;;;;;;5.40;3.43;;;6.80;99.90;;;;;;5014246;28;20506;-58
2022/11/20 03:18:53;;;;;;;3.60;3.00;;;6.80;99.90;;;;;;5013947;28;20938;-58
2022/11/20 03:21:21;;;;;;;4.40;4.00;;;6.90;99.90;;;;;;5014194;28;20447;-58
2022/11/20 03:23:48;;;;;;;4.27;3.90;;;6.90;99.90;;;;;;5013897;28;20497;-58
2022/11/20 03:26:18;;;;;;;4.10;3.80;;;7.00;99.90;;;;;;5013796;28;20555;-58
2022/11/20 03:28:49;;;;;;;3.87;3.47;;;6.90;99.90;;;;;;5013782;28;20450;-58
2022/11/20 03:31:19;;;;;;;5.53;3.90;;;6.90;99.90;;;;;;5013749;28;20659;-58
2022/11/20 03:33:47;;;;;;;3.87;3.57;;;6.90;99.90;;;;;;5014101;28;20463;-58
2022/11/20 03:36:16;;;;;;;4.50;4.20;;;6.90;99.90;;;;;;5013965;28;20487;-58
2022/11/20 03:38:43;;;;;;;3.30;3.00;;;6.80;99.90;;;;;;5014047;28;20479;-57
2022/11/20 03:41:13;;;;;;;3.93;3.63;;;6.70;99.90;;;;;;5013679;28;20519;-57
2022/11/20 03:43:41;;;;;;;4.20;3.80;;;6.70;99.90;;;;;;5013924;28;20454;-57
2022/11/20 03:46:09;;;;;;;4.13;3.43;;;6.60;99.90;;;;;;5013845;28;20524;-58
2022/11/20 03:48:37;;;;;;;8.57;4.17;;;6.60;99.90;;;;;;5013643;28;20965;-58
2022/11/20 03:51:09;;;;;;;4.40;4.10;;;6.60;99.90;;;;;;5013536;28;20487;-58
2022/11/20 03:53:37;;;;;;;6.20;4.23;;;6.60;99.90;;;;;;5013552;28;20483;-58
2022/11/20 03:56:04;;;;;;;5.20;4.60;;;6.60;99.90;;;;;;5013800;28;20493;-57
2022/11/20 03:58:33;;;;;;;5.87;4.67;;;6.50;99.90;;;;;;5013858;28;20451;-58
2022/11/20 04:01:06;;;;;;;7.47;4.07;;;6.40;99.90;;;;;;5014205;28;20454;-58
2022/11/20 04:03:33;;;;;;;4.40;4.00;;;6.40;99.90;;;;;;5017529;28;20439;-58
2022/11/20 04:06:05;;;;;;;5.03;4.53;;;6.60;99.90;;;;;;5017821;28;20558;-58
2022/11/20 04:08:33;;;;;;;6.00;4.17;;;6.50;99.90;;;;;;5017416;28;20458;-57
2022/11/20 04:11:10;;;;;;;4.70;4.27;;;6.40;99.90;;;;;;5017231;28;20887;-57
2022/11/20 04:13:38;;;;;;;5.27;3.97;;;6.30;99.90;;;;;;5017318;28;20470;-57
2022/11/20 04:16:06;;;;;;;4.43;4.03;;;6.30;99.90;;;;;;5017670;28;20479;-57
2022/11/20 04:18:33;;;;;;;5.23;4.70;;;6.30;99.90;;;;;;5017158;28;20925;-58
2022/11/20 04:21:01;;;;;;;4.97;4.57;;;6.40;99.90;;;;;;5017203;28;20934;-57
2022/11/20 04:23:30;;;;;;;4.40;4.00;;;6.30;99.90;;;;;;5017214;28;20501;-58
2022/11/20 04:26:03;;;;;;;5.93;3.97;;;6.40;99.90;;;;;;5016926;28;20513;-58
2022/11/20 04:28:30;;;;;;;4.30;3.90;;;6.30;99.90;;;;;;5017259;28;20902;-57
2022/11/20 04:31:04;;;;;;;4.70;4.30;;;6.40;99.90;;;;;;5017016;28;20486;-57
2022/11/20 04:33:31;;;;;;;4.40;4.00;;;6.30;99.90;;;;;;5016935;28;20462;-57
2022/11/20 04:36:03;;;;;;;5.33;4.43;;;6.20;99.90;;;;;;5017362;28;20474;-57
2022/11/20 04:38:31;;;;;;;5.03;4.43;;;6.30;99.90;;;;;;5017168;28;20432;-57
2022/11/20 04:40:59;;;;;;;5.67;4.63;;;6.30;99.90;;;;;;5016758;28;20985;-57
2022/11/20 04:43:27;;;;;;;6.37;4.77;;;6.30;99.90;;;;;;5016998;28;20443;-58
2022/11/20 04:45:55;;;;;;;5.27;4.87;;;6.20;99.90;;;;;;5016988;28;20499;-58
2022/11/20 04:48:23;;;;;;;4.20;3.80;;;6.20;99.90;;;;;;5017093;28;20520;-58
2022/11/20 04:50:50;;;;;;;5.20;4.80;;;6.20;99.90;;;;;;5016988;28;20514;-58
2022/11/20 04:53:17;;;;;;;4.47;4.07;;;6.20;99.90;;;;;;5016684;28;20458;-58
2022/11/20 04:55:46;;;;;;;5.30;4.00;;;6.20;99.90;;;;;;5016963;28;20499;-58
2022/11/20 04:58:14;;;;;;;4.33;3.93;;;6.20;99.90;;;;;;5016734;28;20525;-57
2022/11/20 05:00:41;;;;;;;4.97;4.37;;;6.30;99.90;;;;;;5017152;28;20446;-57
2022/11/20 05:03:09;;;;;;;4.40;4.00;;;6.30;99.90;;;;;;5016565;28;20455;-58
2022/11/20 05:05:36;;;;;;;4.67;4.27;;;6.40;99.90;;;;;;5016878;28;20482;-58
2022/11/20 05:08:04;;;;;;;4.73;4.33;;;6.40;99.90;;;;;;5016265;28;20464;-58
2022/11/20 05:10:31;;;;;;;7.87;4.70;;;6.50;99.90;;;;;;5016234;28;20531;-58
2022/11/20 05:13:00;;;;;;;5.40;4.90;;;6.50;99.90;;;;;;5016312;28;20538;-57
2022/11/20 05:15:27;;;;;;;6.77;5.00;;;6.50;99.90;;;;;;5016826;28;20576;-57
2022/11/20 05:17:54;;;;;;;7.57;4.90;;;6.50;99.90;;;;;;5016583;28;20483;-58
2022/11/20 05:20:22;;;;;;;4.60;4.20;;;6.50;99.90;;;;;;5016051;28;20447;-58
2022/11/20 05:22:49;;;;;;;5.20;4.20;;;6.60;99.90;;;;;;5015948;28;20545;-57
2022/11/20 05:25:16;;;;;;;5.17;4.03;;;6.60;99.90;;;;;;5015819;28;20467;-58
2022/11/20 05:27:44;;;;;;;5.07;4.50;;;6.70;99.90;;;;;;5015903;28;20482;-58
2022/11/20 05:30:14;;;;;;;5.23;4.43;;;6.60;99.90;;;;;;5015744;28;20916;-57
2022/11/20 05:32:41;;;;;;;4.20;3.80;;;6.70;99.90;;;;;;5015856;28;20467;-57
2022/11/20 05:35:09;;;;;;;4.23;3.80;;;6.80;99.90;;;;;;5016166;28;20509;-58
2022/11/20 05:37:36;;;;;;;5.07;3.97;;;6.80;99.90;;;;;;5015709;28;20977;-58
2022/11/20 05:40:04;;;;;;;3.97;3.57;;;6.80;99.90;;;;;;5015655;28;20934;-58
2022/11/20 05:42:32;;;;;;;3.73;3.43;;;6.70;99.90;;;;;;5015893;28;20486;-57
2022/11/20 05:45:00;;;;;;;4.50;4.10;;;6.80;99.90;;;;;;5015791;28;20894;-58
2022/11/20 05:47:32;;;;;;;4.87;4.47;;;6.70;99.90;;;;;;5015785;28;20534;-58
2022/11/20 05:49:59;;;;;;;4.40;4.00;;;6.70;99.90;;;;;;5015692;28;20901;-58
2022/11/20 05:52:29;;;;;;;4.50;4.20;;;6.70;99.90;;;;;;5015870;28;20530;-58
2022/11/20 05:54:56;;;;;;;4.20;3.80;;;6.70;99.90;;;;;;5015579;28;20502;-58
2022/11/20 05:57:24;;;;;;;5.63;3.87;;;6.70;99.90;;;;;;5015291;28;20538;-58
2022/11/20 05:59:51;;;;;;;4.20;3.73;;;6.70;99.90;;;;;;5015261;28;20486;-57
2022/11/20 06:02:18;;;;;;;7.30;4.17;;;6.70;99.90;;;;;;5015212;28;20485;-58
2022/11/20 06:04:47;;;;;;;6.80;3.90;;;6.70;99.90;;;;;;5015249;28;20985;-58
2022/11/20 06:07:14;;;;;;;3.67;3.37;;;6.80;99.90;;;;;;5015159;28;20518;-58
2022/11/20 06:09:41;;;;;;;4.23;3.80;;;6.80;99.90;;;;;;5015020;28;20518;-58
2022/11/20 06:12:09;;;;;;;4.00;3.40;;;6.80;99.90;;;;;;5014951;28;20543;-57
2022/11/20 06:14:36;;;;;;;3.47;3.17;;;6.80;99.90;;;;;;5014939;28;20861;-57
2022/11/20 06:17:03;;;;;;;3.60;3.30;;;6.80;99.90;;;;;;5015166;28;20447;-57
2022/11/20 06:19:31;;;;;;;4.53;3.80;;;6.80;99.90;;;;;;5015264;28;20451;-57
2022/11/20 06:21:59;;;;;;;4.00;3.60;;;6.80;99.90;;;;;;5014872;28;20447;-58
2022/11/20 06:24:27;;;;;;;3.93;3.23;;;6.80;99.90;;;;;;5014162;28;20977;-58
2022/11/20 06:26:54;;;;;;;6.17;3.80;;;6.80;99.90;;;;;;5015047;28;20459;-58
2022/11/20 06:29:21;;;;;;;4.77;4.23;;;6.80;99.90;;;;;;5014736;28;20455;-57
2022/11/20 06:31:48;;;;;;;4.00;3.70;;;6.90;99.90;;;;;;5014578;28;20532;-57
2022/11/20 06:34:16;;;;;;;4.57;4.00;;;7.00;99.90;;;;;;5014674;28;20487;-58
2022/11/20 06:36:47;;;;;;;6.23;4.07;;;7.00;99.90;;;;;;5014891;28;20474;-58
2022/11/20 06:39:16;;;;;;;3.40;3.10;;;7.10;99.90;;;;;;5014740;28;20447;-58
2022/11/20 06:41:43;;;;;;;4.73;4.00;;;7.20;99.90;;;;;;5014539;28;20848;-57
2022/11/20 06:44:11;;;;;;;6.77;3.60;;;7.10;99.90;;;;;;5014664;28;20507;-58
2022/11/20 06:46:38;;;;;;;3.30;3.10;;;7.10;99.90;;;;;;5014674;28;20574;-57
2022/11/20 06:49:05;;;;;;;3.23;2.93;;;7.00;99.90;;;;;;5014527;28;20482;-58
2022/11/20 06:51:33;;;;;;;3.20;2.90;;;7.00;99.90;;;;;;5014592;28;20479;-58
2022/11/20 06:54:00;;;;;;;3.63;3.33;;;7.10;99.90;;;;;;5014625;28;20501;-58
2022/11/20 06:56:29;;;;;;;3.27;3.07;;;7.10;99.90;;;;;;5014392;28;20498;-58
2022/11/20 06:58:56;;;;;;;3.23;2.93;;;7.00;99.90;;;;;;5014616;28;20803;-58
2022/11/20 07:01:24;;;;;;;3.10;2.80;;;7.00;99.90;;;;;;5014183;28;20509;-58
2022/11/20 07:03:51;;;;;;;3.50;2.80;;;7.00;99.90;;;;;;5014225;28;20443;-58
2022/11/20 07:06:19;;;;;;;2.80;2.60;;;6.90;99.90;;;;;;5014408;28;20529;-58
2022/11/20 07:08:46;;;;;;;3.50;2.90;;;7.00;99.90;;;;;;5013843;28;20451;-57
2022/11/20 07:11:14;;;;;;;3.00;2.73;;;7.00;99.90;;;;;;5014853;28;20473;-57
2022/11/20 07:13:43;;;;;;;3.80;3.50;;;7.00;99.90;;;;;;5014000;28;20462;-58
2022/11/20 07:16:10;;;;;;;3.77;3.40;;;7.10;99.90;;;;;;5014401;28;20898;-58
2022/11/20 07:18:38;;;;;;;4.90;2.77;;;7.10;99.90;;;;;;5013910;28;20965;-58
2022/11/20 07:21:07;;;;;;;2.93;2.73;;;7.10;99.90;;;;;;5013902;28;20954;-58
2022/11/20 07:23:34;;;;;;;3.70;3.50;;;7.10;99.90;;;;;;5014083;28;20455;-57
2022/11/20 07:26:04;;;;;;;4.80;2.83;;;7.20;99.90;;;;;;5014103;28;20466;-58
2022/11/20 07:28:32;;;;;;;3.00;2.80;;;7.20;99.90;;;;;;5013879;28;20470;-57
2022/11/20 07:31:00;;;;;;;3.40;2.67;;;7.20;99.90;;;;;;5013681;28;20522;-58
2022/11/20 07:33:28;;;;;;;4.57;3.07;;;7.20;99.90;;;;;;5014093;28;20538;-58
2022/11/20 07:35:55;;;;;;;3.30;3.00;;;7.20;99.90;;;;;;5013397;28;20545;-58
2022/11/20 07:38:23;;;;;;;3.40;3.10;;;7.30;99.90;;;;;;5013712;28;20461;-58
2022/11/20 07:40:54;;;;;;;4.00;3.10;;;7.40;99.90;;;;;;5013976;28;20478;-58
2022/11/20 07:43:21;;;;;;;7.63;3.50;;;7.30;99.90;;;;;;5013774;28;20493;-58
2022/11/20 07:45:48;;;;;;;4.10;3.70;;;7.30;99.90;;;;;;5013855;28;20471;-58
2022/11/20 07:48:17;;;;;;;2.90;2.70;;;7.30;99.90;;;;;;5013894;28;20509;-58
2022/11/20 07:50:44;;;;;;;4.63;2.40;;;7.30;99.90;;;;;;5013818;28;20898;-58
2022/11/20 07:53:13;;;;;;;3.03;2.83;;;7.40;99.90;;;;;;5013927;28;20455;-58
2022/11/20 07:55:41;;;;;;;6.60;3.40;;;7.40;99.90;;;;;;5013455;28;20981;-58
2022/11/20 07:58:08;;;;;;;3.23;3.03;;;7.40;99.90;;;;;;5013605;28;20494;-58
2022/11/20 08:00:35;;;;;;;3.33;3.13;;;7.40;99.90;;;;;;5013847;28;20541;-58
2022/11/20 08:03:04;;;;;;;3.67;3.37;;;7.30;99.90;;;;;;5013470;28;20459;-58
2022/11/20 08:05:33;;;;;;;2.93;2.73;;;7.40;99.90;;;;;;5013987;28;20509;-58
2022/11/20 08:08:00;;;;;;;8.53;2.80;;;7.40;99.90;;;;;;5013250;28;20538;-58
2022/11/20 08:10:28;;;;;;;4.33;3.93;;;7.50;99.90;;;;;;5013072;28;20487;-58
2022/11/20 08:15:40;;;;;;;2.70;2.50;;;7.60;99.90;;;;;;5013639;28;20442;-58
2022/11/20 08:18:10;;;;;;;3.43;3.23;;;7.70;99.90;;;;;;5013328;28;20487;-58
2022/11/20 08:20:40;;;;;;;4.50;2.77;;;7.70;99.90;;;;;;5013556;28;20517;-58
2022/11/20 08:23:08;;;;;;;3.60;3.23;;;7.70;99.90;;;;;;5013276;28;20451;-58
2022/11/20 08:25:36;;;;;;;5.30;3.17;;;7.70;99.90;;;;;;5013606;28;20467;-58
2022/11/20 08:28:06;;;;;;;2.63;2.43;;;7.70;99.90;;;;;;5013246;28;20524;-58
2022/11/20 08:30:34;;;;;;;3.07;2.87;;;7.60;99.90;;;;;;5013187;28;20447;-58
2022/11/20 08:33:04;;;;;;;2.57;2.37;;;7.60;99.90;;;;;;5013242;28;20451;-58
2022/11/20 08:35:35;;;;;;;3.03;2.73;;;7.70;99.90;;;;;;5013431;28;20486;-58
2022/11/20 08:38:04;;;;;;;3.27;3.07;;;7.80;99.90;;;;;;5013459;28;20435;-58
2022/11/20 08:40:32;;;;;;;2.90;2.70;;;7.80;99.90;;;;;;5013396;28;20459;-58
2022/11/20 08:43:00;;;;;;;3.17;2.87;;;7.90;99.90;;;;;;5013114;28;20455;-57
2022/11/20 08:45:27;;;;;;;3.10;2.50;;;7.90;99.90;;;;;;5013271;28;20467;-58
2022/11/20 08:48:00;;;;;;;2.93;2.70;;;7.90;99.90;;;;;;5014724;28;20446;-58
2022/11/20 08:50:27;;;;;;;2.50;2.33;;;8.00;99.90;;;;;;5017439;28;20431;-58
2022/11/20 08:52:55;;;;;;;2.60;2.30;;;8.10;99.90;;;;;;5016745;28;20518;-58
2022/11/20 08:55:23;;;;;;;2.10;2.00;;;8.10;99.90;;;;;;5016389;28;20462;-58
2022/11/20 08:57:51;;;;;;;3.20;2.27;;;8.20;99.90;;;;;;5016407;28;20790;-58
2022/11/20 09:00:18;;;;;;;2.53;2.03;;;8.50;99.90;;;;;;5016423;28;21059;-58
2022/11/20 09:02:46;;;;;;;2.40;2.20;;;8.60;99.90;;;;;;5016346;28;20447;-58
2022/11/20 09:05:13;;;;;;;2.27;2.07;;;8.50;99.90;;;;;;5016666;28;20475;-58
2022/11/20 09:07:41;;;;;;;2.63;2.43;;;8.60;99.90;;;;;;5016251;28;20451;-58
2022/11/20 09:10:09;;;;;;;2.33;2.13;;;8.60;99.90;;;;;;5015981;28;20490;-58
2022/11/20 09:12:38;;;;;;;3.00;2.40;;;8.70;99.90;;;;;;5016357;28;20491;-58
2022/11/20 09:15:06;;;;;;;2.20;2.00;;;8.60;99.90;;;;;;5016051;28;20881;-58
2022/11/20 09:17:34;;;;;;;2.00;1.90;;;8.60;99.90;;;;;;5016404;28;20458;-58
2022/11/20 09:20:01;;;;;;;2.83;2.07;;;8.60;99.90;;;;;;5016276;28;20787;-57
2022/11/20 09:22:28;;;;;;;1.93;1.83;;;8.50;99.90;;;;;;5015923;28;20888;-58
2022/11/20 09:24:55;;;;;;;2.30;2.10;;;8.40;99.90;;;;;;5016040;28;20467;-58
2022/11/20 09:27:23;;;;;;;2.00;1.80;;;8.30;99.90;;;;;;5016179;28;20451;-58
2022/11/20 09:29:52;;;;;;;2.03;1.87;;;8.30;99.90;;;;;;5015879;28;20454;-58
2022/11/20 09:32:19;;;;;;;2.70;1.90;;;8.40;99.90;;;;;;5015803;28;20578;-58
2022/11/20 09:34:46;;;;;;;2.60;2.03;;;8.50;99.90;;;;;;5016045;28;20470;-58
2022/11/20 09:37:13;;;;;;;1.70;1.60;;;8.50;99.90;;;;;;5015975;28;20482;-58
2022/11/20 09:39:40;;;;;;;1.50;1.40;;;8.50;99.90;;;;;;5015671;28;20537;-58
2022/11/20 09:42:37;;;;;;;2.20;1.60;;;8.40;99.90;;;;;;5015584;28;20866;-58
2022/11/20 09:45:22;;;;;;;1.87;1.70;;;8.30;99.90;;;;;;5015711;28;20549;-58
2022/11/20 09:48:17;;;;;;;1.67;1.57;;;8.40;99.90;;;;;;5015712;28;20798;-58
2022/11/20 09:50:50;;;;;;;1.50;1.40;;;8.40;99.90;;;;;;5015747;28;20439;-58
2022/11/20 09:53:29;;;;;;;1.60;1.50;;;8.50;99.90;;;;;;5016167;28;20858;-58
2022/11/20 09:55:57;;;;;;;1.57;1.47;;;8.30;99.90;;;;;;5015764;28;20475;-58
2022/11/20 09:58:32;;;;;;;1.43;1.33;;;8.40;99.90;;;;;;5015118;28;20447;-58
2022/11/20 10:01:10;;;;;;;1.67;1.57;;;8.50;99.90;;;;;;5014998;28;20509;-58
2022/11/20 10:03:42;;;;;;;1.60;1.50;;;8.60;99.90;;;;;;5016015;28;20451;-57
2022/11/20 10:06:16;;;;;;;2.07;1.60;;;8.50;99.90;;;;;;5015803;28;20478;-58
2022/11/20 10:08:50;;;;;;;2.40;1.50;;;8.50;99.90;;;;;;5014871;28;20878;-58
2022/11/20 10:11:27;;;;;;;2.93;1.73;;;8.40;99.90;;;;;;5015321;28;20547;-58
2022/11/20 10:14:05;;;;;;;1.40;1.30;;;8.30;99.90;;;;;;5015057;28;20463;-58
2022/11/20 10:16:44;;;;;;;1.80;1.60;;;8.30;99.90;;;;;;5015078;28;20502;-59
2022/11/20 10:19:29;;;;;;;3.70;1.70;;;8.30;99.90;;;;;;5014989;28;20464;-58
2022/11/20 10:22:07;;;;;;;1.90;1.80;;;8.20;99.90;;;;;;5015692;28;20827;-58
2022/11/20 10:24:45;;;;;;;2.17;1.97;;;8.20;99.90;;;;;;5014758;28;20986;-58
2022/11/20 10:27:34;;;;;;;1.60;1.50;;;8.20;99.90;;;;;;5014760;28;20518;-58
2022/11/20 10:30:04;;;;;;;2.03;1.83;;;8.10;99.90;;;;;;5015154;28;20432;-57
2022/11/20 10:32:37;;;;;;;2.00;1.80;;;7.80;99.90;;;;;;5014729;28;20532;-57
2022/11/20 10:35:15;;;;;;;1.77;1.67;;;7.80;99.90;;;;;;5014952;28;20482;-58
2022/11/20 10:37:46;;;;;;;2.13;1.83;;;7.80;99.90;;;;;;5014642;28;20470;-57
2022/11/20 10:40:22;;;;;;;2.00;1.80;;;7.60;99.90;;;;;;5015105;28;20467;-57
2022/11/20 10:42:55;;;;;;;2.60;1.93;;;7.50;99.90;;;;;;5014756;28;20481;-57
2022/11/20 10:45:47;;;;;;;2.10;1.90;;;7.60;99.90;;;;;;5014577;28;20554;-58
2022/11/20 10:48:21;;;;;;;3.37;2.03;;;7.60;99.90;;;;;;5014718;28;20470;-57
2022/11/20 10:51:00;;;;;;;2.20;1.93;;;7.50;99.90;;;;;;5014853;28;20467;-58
2022/11/20 10:53:46;;;;;;;3.90;2.20;;;7.60;99.90;;;;;;5014549;28;20458;-58
2022/11/20 10:56:21;;;;;;;2.27;2.07;;;7.60;99.90;;;;;;5014333;28;20462;-57
2022/11/20 10:59:03;;;;;;;2.20;1.90;;;7.60;99.90;;;;;;5014257;28;20435;-58
2022/11/20 11:01:30;;;;;;;1.93;1.83;;;7.50;99.90;;;;;;5014244;28;20435;-57
2022/11/20 11:04:00;;;;;;;4.50;2.50;;;7.50;99.90;;;;;;5015015;28;20493;-58
2022/11/20 11:06:35;;;;;;;4.50;1.80;;;7.60;99.90;;;;;;5014391;28;20503;-57
2022/11/20 11:09:10;;;;;;;1.97;1.80;;;7.70;99.90;;;;;;5013920;28;20523;-58
2022/11/20 11:11:39;;;;;;;3.20;2.00;;;7.80;99.90;;;;;;5014162;28;20834;-57
2022/11/20 11:14:08;;;;;;;2.10;2.00;;;7.80;99.90;;;;;;5014779;28;20459;-57
2022/11/20 11:16:35;;;;;;;2.47;2.13;;;7.70;99.90;;;;;;5013881;28;20514;-57
2022/11/20 11:19:12;;;;;;;3.00;2.73;;;7.90;99.90;;;;;;5014114;28;20450;-57
2022/11/20 11:21:45;;;;;;;2.40;2.20;;;7.90;99.90;;;;;;5013949;28;20435;-57
2022/11/20 11:24:25;;;;;;;10.90;6.47;;;7.80;99.90;;;;;;5013992;28;20474;-58
2022/11/20 11:26:56;;;;;;;2.63;2.43;;;8.00;99.90;;;;;;5013971;28;20466;-58
2022/11/20 11:29:23;;;;;;;2.33;2.13;;;8.30;99.90;;;;;;5014369;28;20523;-58
2022/11/20 11:31:51;;;;;;;2.57;2.37;;;9.20;99.90;;;;;;5013698;28;20924;-57
2022/11/20 11:34:19;;;;;;;2.67;2.20;;;9.40;99.90;;;;;;5013787;28;20455;-58
2022/11/20 11:36:56;;;;;;;2.63;2.43;;;10.10;99.90;;;;;;5013517;28;20558;-58
2022/11/20 11:39:24;;;;;;;1.90;1.80;;;10.50;99.90;;;;;;5014193;28;20431;-58
2022/11/20 11:41:52;;;;;;;2.43;2.23;;;11.00;99.90;;;;;;5014009;28;20479;-57
2022/11/20 11:47:10;;;;;;;5.93;2.20;;;10.60;99.90;;;;;;5014034;28;20882;-57
2022/11/20 11:49:40;;;;;;;3.37;2.33;;;9.70;99.90;;;;;;5013676;28;20431;-58
2022/11/20 11:52:14;;;;;;;2.77;2.57;;;9.70;99.90;;;;;;5013946;28;20497;-58
2022/11/20 11:54:47;;;;;;;3.43;2.50;;;9.60;99.90;;;;;;5013590;28;20435;-58
2022/11/20 11:57:23;;;;;;;5.53;1.83;;;9.80;99.90;;;;;;5013906;28;20493;-58
2022/11/20 12:00:01;;;;;;;2.40;2.20;;;10.10;99.90;;;;;;5013394;28;20473;-58
2022/11/20 12:02:38;;;;;;;15.03;7.00;;;10.20;99.90;;;;;;5013497;28;20427;-58
2022/11/20 12:05:18;;;;;;;6.83;4.60;;;10.10;99.90;;;;;;5013748;28;20482;-57
2022/11/20 12:07:49;;;;;;;7.90;4.07;;;10.10;99.90;;;;;;5013477;28;20458;-57
2022/11/20 12:10:21;;;;;;;2.77;2.30;;;10.10;99.90;;;;;;5013141;28;20486;-58
2022/11/20 12:12:54;;;;;;;8.77;5.50;;;9.90;99.90;;;;;;5013469;28;20471;-58
2022/11/20 12:15:29;;;;;;;3.23;2.50;;;9.80;99.90;;;;;;5013392;28;20475;-57
2022/11/20 12:17:57;;;;;;;3.73;3.33;;;9.90;99.90;;;;;;5013374;28;20901;-58
2022/11/20 12:20:30;;;;;;;3.93;2.27;;;9.70;99.90;;;;;;5013598;28;20478;-58
2022/11/20 12:23:06;;;;;;;4.50;2.00;;;9.60;99.90;;;;;;5015452;28;20455;-57
2022/11/20 12:25:36;;;;;;;5.00;2.73;;;9.60;99.90;;;;;;5016993;28;20467;-57
2022/11/20 12:28:22;;;;;;;10.63;5.30;;;9.80;99.90;;;;;;5017003;28;20948;-57
2022/11/20 12:31:04;;;;;;;6.87;2.70;;;9.90;99.90;;;;;;5017090;28;20446;-58
2022/11/20 12:34:03;;;;;;;3.97;2.97;;;9.80;99.90;;;;;;5017187;28;20828;-58
2022/11/20 12:36:40;;;;;;;6.20;3.20;;;9.80;99.90;;;;;;5016771;28;20561;-59
2022/11/20 12:39:31;;;;;;;2.73;2.40;;;9.90;99.90;;;;;;5017357;28;20865;-58
2022/11/20 12:45:23;;;;;;;2.20;2.00;;;9.80;99.90;;;;;;5017005;28;20523;-58
2022/11/20 12:48:16;;;;;;;3.00;1.70;;;9.90;99.90;;;;;;5016913;28;20434;-58
2022/11/20 12:50:53;;;;;;;2.17;1.60;;;9.80;99.90;;;;;;5016583;28;20805;-58
2022/11/20 12:53:32;;;;;;;3.40;2.00;;;9.80;99.90;;;;;;5016480;28;20473;-59
2022/11/20 12:56:11;;;;;;;1.80;1.70;;;9.80;99.90;;;;;;5016781;28;20474;-58
2022/11/20 12:58:45;;;;;;;1.90;1.70;;;10.00;99.90;;;;;;5016606;28;20462;-58
2022/11/20 13:01:40;;;;;;;2.30;2.10;;;9.90;99.90;;;;;;5016410;28;20925;-59
2022/11/20 13:04:18;;;;;;;3.10;2.00;;;9.70;99.90;;;;;;5016350;28;20470;-58
2022/11/20 13:06:46;;;;;;;3.50;1.67;;;9.80;99.90;;;;;;5016297;28;20516;-58
2022/11/20 13:09:18;;;;;;;1.90;1.80;;;10.00;99.90;;;;;;5016019;28;20533;-60
2022/11/20 13:11:51;;;;;;;5.77;1.57;;;10.20;99.90;;;;;;5016199;28;20435;-58
2022/11/20 13:14:29;;;;;;;2.73;2.07;;;10.10;99.90;;;;;;5017012;28;20603;-58
2022/11/20 13:17:01;;;;;;;3.30;1.67;;;9.80;99.90;;;;;;5016172;28;20924;-59
2022/11/20 13:19:29;;;;;;;2.03;1.43;;;;;;;;;;5016110;28;20481;-59
2022/11/20 13:21:56;;;;;;;3.40;1.80;;;9.60;99.90;;;;;;5015931;28;20451;-58